sensor_id;sensor_type;location;lat;lon;timestamp;P1;durP1;ratioP1;P2;durP2;ratioP2
72439;SDS011;60446;50.752;4.352;2023-05-27T00:01:33;9.35;;;2.25;;
72439;SDS011;60446;50.752;4.352;2023-05-27T00:04:00;12.82;;;2.70;;
72439;SDS011;60446;50.752;4.352;2023-05-27T00:06:27;8.00;;;2.17;;
72439;SDS011;60446;50.752;4.352;2023-05-27T00:08:54;10.47;;;1.87;;
72439;SDS011;60446;50.752;4.352;2023-05-27T00:11:21;11.40;;;2.30;;
72439;SDS011;60446;50.752;4.352;2023-05-27T00:13:49;11.60;;;1.88;;
72439;SDS011;60446;50.752;4.352;2023-05-27T00:16:16;12.10;;;2.08;;
72439;SDS011;60446;50.752;4.352;2023-05-27T00:18:43;11.20;;;1.95;;
72439;SDS011;60446;50.752;4.352;2023-05-27T00:21:10;10.60;;;3.13;;
72439;SDS011;60446;50.752;4.352;2023-05-27T00:23:37;10.57;;;2.20;;
72439;SDS011;60446;50.752;4.352;2023-05-27T00:26:04;14.77;;;2.30;;
72439;SDS011;60446;50.752;4.352;2023-05-27T00:28:32;11.45;;;2.10;;
72439;SDS011;60446;50.752;4.352;2023-05-27T00:30:59;11.65;;;2.20;;
72439;SDS011;60446;50.752;4.352;2023-05-27T00:33:26;8.70;;;2.10;;
72439;SDS011;60446;50.752;4.352;2023-05-27T00:35:54;8.55;;;1.83;;
72439;SDS011;60446;50.752;4.352;2023-05-27T00:38:21;11.80;;;2.25;;
72439;SDS011;60446;50.752;4.352;2023-05-27T00:40:49;10.60;;;2.22;;
72439;SDS011;60446;50.752;4.352;2023-05-27T00:43:19;12.00;;;2.53;;
72439;SDS011;60446;50.752;4.352;2023-05-27T00:45:46;8.77;;;2.10;;
72439;SDS011;60446;50.752;4.352;2023-05-27T00:48:14;13.65;;;2.20;;
72439;SDS011;60446;50.752;4.352;2023-05-27T00:50:41;13.65;;;2.35;;
72439;SDS011;60446;50.752;4.352;2023-05-27T00:53:08;13.68;;;2.70;;
72439;SDS011;60446;50.752;4.352;2023-05-27T00:55:35;11.95;;;2.70;;
72439;SDS011;60446;50.752;4.352;2023-05-27T00:58:03;11.70;;;2.30;;
72439;SDS011;60446;50.752;4.352;2023-05-27T01:00:33;10.57;;;1.88;;
72439;SDS011;60446;50.752;4.352;2023-05-27T01:03:00;13.45;;;2.33;;
72439;SDS011;60446;50.752;4.352;2023-05-27T01:05:28;9.18;;;2.67;;
72439;SDS011;60446;50.752;4.352;2023-05-27T01:08:02;11.95;;;2.30;;
72439;SDS011;60446;50.752;4.352;2023-05-27T01:10:58;12.23;;;2.00;;
72439;SDS011;60446;50.752;4.352;2023-05-27T01:13:46;10.48;;;1.90;;
72439;SDS011;60446;50.752;4.352;2023-05-27T01:16:24;14.48;;;2.40;;
72439;SDS011;60446;50.752;4.352;2023-05-27T01:18:54;9.75;;;1.80;;
72439;SDS011;60446;50.752;4.352;2023-05-27T01:21:26;12.95;;;2.33;;
72439;SDS011;60446;50.752;4.352;2023-05-27T01:24:02;11.87;;;2.13;;
72439;SDS011;60446;50.752;4.352;2023-05-27T01:26:30;12.35;;;2.67;;
72439;SDS011;60446;50.752;4.352;2023-05-27T01:28:57;13.80;;;2.60;;
72439;SDS011;60446;50.752;4.352;2023-05-27T01:31:31;9.07;;;2.10;;
72439;SDS011;60446;50.752;4.352;2023-05-27T01:34:17;8.52;;;2.03;;
72439;SDS011;60446;50.752;4.352;2023-05-27T01:36:51;11.67;;;2.17;;
72439;SDS011;60446;50.752;4.352;2023-05-27T01:39:26;13.77;;;2.33;;
72439;SDS011;60446;50.752;4.352;2023-05-27T01:41:54;11.27;;;2.30;;
72439;SDS011;60446;50.752;4.352;2023-05-27T01:44:22;13.30;;;2.10;;
72439;SDS011;60446;50.752;4.352;2023-05-27T01:46:50;10.27;;;2.55;;
72439;SDS011;60446;50.752;4.352;2023-05-27T01:49:17;12.27;;;2.27;;
72439;SDS011;60446;50.752;4.352;2023-05-27T01:51:44;6.32;;;1.58;;
72439;SDS011;60446;50.752;4.352;2023-05-27T01:54:11;14.65;;;2.13;;
72439;SDS011;60446;50.752;4.352;2023-05-27T01:56:38;10.65;;;2.28;;
72439;SDS011;60446;50.752;4.352;2023-05-27T01:59:06;16.00;;;2.90;;
72439;SDS011;60446;50.752;4.352;2023-05-27T02:01:33;10.83;;;2.37;;
72439;SDS011;60446;50.752;4.352;2023-05-27T02:04:01;14.50;;;2.33;;
72439;SDS011;60446;50.752;4.352;2023-05-27T02:06:30;13.88;;;2.72;;
72439;SDS011;60446;50.752;4.352;2023-05-27T02:08:58;13.20;;;2.40;;
72439;SDS011;60446;50.752;4.352;2023-05-27T02:11:26;11.85;;;2.03;;
72439;SDS011;60446;50.752;4.352;2023-05-27T02:13:53;10.30;;;2.17;;
72439;SDS011;60446;50.752;4.352;2023-05-27T02:16:21;13.52;;;2.20;;
72439;SDS011;60446;50.752;4.352;2023-05-27T02:18:48;8.73;;;2.30;;
72439;SDS011;60446;50.752;4.352;2023-05-27T02:21:16;12.90;;;2.42;;
72439;SDS011;60446;50.752;4.352;2023-05-27T02:23:43;9.10;;;2.50;;
72439;SDS011;60446;50.752;4.352;2023-05-27T02:26:10;11.83;;;1.90;;
72439;SDS011;60446;50.752;4.352;2023-05-27T02:28:37;12.40;;;2.45;;
72439;SDS011;60446;50.752;4.352;2023-05-27T02:31:05;16.55;;;2.20;;
72439;SDS011;60446;50.752;4.352;2023-05-27T02:33:33;12.23;;;2.63;;
72439;SDS011;60446;50.752;4.352;2023-05-27T02:36:00;14.02;;;2.72;;
72439;SDS011;60446;50.752;4.352;2023-05-27T02:38:28;15.30;;;2.73;;
72439;SDS011;60446;50.752;4.352;2023-05-27T02:40:55;9.57;;;1.92;;
72439;SDS011;60446;50.752;4.352;2023-05-27T02:43:22;14.43;;;2.47;;
72439;SDS011;60446;50.752;4.352;2023-05-27T02:45:49;10.13;;;2.78;;
72439;SDS011;60446;50.752;4.352;2023-05-27T02:48:17;12.30;;;2.67;;
72439;SDS011;60446;50.752;4.352;2023-05-27T02:50:44;11.57;;;2.33;;
72439;SDS011;60446;50.752;4.352;2023-05-27T02:53:12;13.50;;;2.75;;
72439;SDS011;60446;50.752;4.352;2023-05-27T02:55:39;14.05;;;3.00;;
72439;SDS011;60446;50.752;4.352;2023-05-27T02:58:06;11.77;;;2.47;;
72439;SDS011;60446;50.752;4.352;2023-05-27T03:00:34;14.43;;;2.50;;
72439;SDS011;60446;50.752;4.352;2023-05-27T03:03:01;13.03;;;2.40;;
72439;SDS011;60446;50.752;4.352;2023-05-27T03:05:31;13.48;;;2.22;;
72439;SDS011;60446;50.752;4.352;2023-05-27T03:07:59;11.05;;;2.35;;
72439;SDS011;60446;50.752;4.352;2023-05-27T03:10:26;12.23;;;2.50;;
72439;SDS011;60446;50.752;4.352;2023-05-27T03:12:56;10.65;;;2.67;;
72439;SDS011;60446;50.752;4.352;2023-05-27T03:15:23;13.67;;;2.57;;
72439;SDS011;60446;50.752;4.352;2023-05-27T03:17:50;11.88;;;2.90;;
72439;SDS011;60446;50.752;4.352;2023-05-27T03:20:18;10.82;;;2.63;;
72439;SDS011;60446;50.752;4.352;2023-05-27T03:22:45;13.38;;;2.60;;
72439;SDS011;60446;50.752;4.352;2023-05-27T03:25:13;10.88;;;2.63;;
72439;SDS011;60446;50.752;4.352;2023-05-27T03:27:41;13.50;;;3.03;;
72439;SDS011;60446;50.752;4.352;2023-05-27T03:30:12;15.13;;;3.28;;
72439;SDS011;60446;50.752;4.352;2023-05-27T03:32:45;18.38;;;2.97;;
72439;SDS011;60446;50.752;4.352;2023-05-27T03:35:14;13.98;;;3.00;;
72439;SDS011;60446;50.752;4.352;2023-05-27T03:37:44;8.45;;;2.20;;
72439;SDS011;60446;50.752;4.352;2023-05-27T03:40:12;13.87;;;2.37;;
72439;SDS011;60446;50.752;4.352;2023-05-27T03:42:39;18.83;;;3.05;;
72439;SDS011;60446;50.752;4.352;2023-05-27T03:45:07;9.35;;;2.47;;
72439;SDS011;60446;50.752;4.352;2023-05-27T03:47:35;10.48;;;2.58;;
72439;SDS011;60446;50.752;4.352;2023-05-27T03:50:03;16.60;;;2.92;;
72439;SDS011;60446;50.752;4.352;2023-05-27T03:52:30;9.17;;;2.43;;
72439;SDS011;60446;50.752;4.352;2023-05-27T03:55:00;10.70;;;2.70;;
72439;SDS011;60446;50.752;4.352;2023-05-27T03:57:27;11.80;;;2.60;;
72439;SDS011;60446;50.752;4.352;2023-05-27T03:59:54;14.30;;;2.58;;
72439;SDS011;60446;50.752;4.352;2023-05-27T04:02:21;11.57;;;2.60;;
72439;SDS011;60446;50.752;4.352;2023-05-27T04:04:50;11.93;;;2.77;;
72439;SDS011;60446;50.752;4.352;2023-05-27T04:07:18;11.88;;;2.22;;
72439;SDS011;60446;50.752;4.352;2023-05-27T04:09:46;14.32;;;3.40;;
72439;SDS011;60446;50.752;4.352;2023-05-27T04:12:13;14.05;;;2.53;;
72439;SDS011;60446;50.752;4.352;2023-05-27T04:14:41;10.35;;;2.75;;
72439;SDS011;60446;50.752;4.352;2023-05-27T04:17:08;18.00;;;2.90;;
72439;SDS011;60446;50.752;4.352;2023-05-27T04:19:35;15.00;;;3.25;;
72439;SDS011;60446;50.752;4.352;2023-05-27T04:22:03;11.88;;;2.38;;
72439;SDS011;60446;50.752;4.352;2023-05-27T04:24:32;12.50;;;2.33;;
72439;SDS011;60446;50.752;4.352;2023-05-27T04:26:59;11.15;;;3.00;;
72439;SDS011;60446;50.752;4.352;2023-05-27T04:29:28;15.73;;;2.83;;
72439;SDS011;60446;50.752;4.352;2023-05-27T04:31:58;13.75;;;3.33;;
72439;SDS011;60446;50.752;4.352;2023-05-27T04:34:25;11.50;;;2.97;;
72439;SDS011;60446;50.752;4.352;2023-05-27T04:36:52;11.95;;;3.08;;
72439;SDS011;60446;50.752;4.352;2023-05-27T04:39:24;12.77;;;2.65;;
72439;SDS011;60446;50.752;4.352;2023-05-27T04:41:52;10.83;;;2.40;;
72439;SDS011;60446;50.752;4.352;2023-05-27T04:44:24;8.63;;;2.35;;
72439;SDS011;60446;50.752;4.352;2023-05-27T04:46:55;13.63;;;2.33;;
72439;SDS011;60446;50.752;4.352;2023-05-27T04:49:22;17.75;;;3.47;;
72439;SDS011;60446;50.752;4.352;2023-05-27T04:51:49;14.30;;;2.53;;
72439;SDS011;60446;50.752;4.352;2023-05-27T04:54:19;10.10;;;2.60;;
72439;SDS011;60446;50.752;4.352;2023-05-27T04:56:48;13.55;;;3.13;;
72439;SDS011;60446;50.752;4.352;2023-05-27T04:59:30;9.80;;;2.75;;
72439;SDS011;60446;50.752;4.352;2023-05-27T05:02:18;13.35;;;2.90;;
72439;SDS011;60446;50.752;4.352;2023-05-27T05:05:11;12.07;;;2.70;;
72439;SDS011;60446;50.752;4.352;2023-05-27T05:07:39;13.70;;;3.00;;
72439;SDS011;60446;50.752;4.352;2023-05-27T05:10:10;11.18;;;2.85;;
72439;SDS011;60446;50.752;4.352;2023-05-27T05:12:49;17.23;;;3.30;;
72439;SDS011;60446;50.752;4.352;2023-05-27T05:15:16;10.80;;;2.65;;
72439;SDS011;60446;50.752;4.352;2023-05-27T05:17:45;15.32;;;3.03;;
72439;SDS011;60446;50.752;4.352;2023-05-27T05:20:13;16.57;;;3.20;;
72439;SDS011;60446;50.752;4.352;2023-05-27T05:22:40;10.77;;;3.30;;
72439;SDS011;60446;50.752;4.352;2023-05-27T05:25:09;14.48;;;2.80;;
72439;SDS011;60446;50.752;4.352;2023-05-27T05:27:41;13.77;;;2.67;;
72439;SDS011;60446;50.752;4.352;2023-05-27T05:30:09;11.98;;;3.10;;
72439;SDS011;60446;50.752;4.352;2023-05-27T05:32:36;10.80;;;2.80;;
72439;SDS011;60446;50.752;4.352;2023-05-27T05:35:04;15.30;;;3.33;;
72439;SDS011;60446;50.752;4.352;2023-05-27T05:37:33;19.33;;;2.90;;
72439;SDS011;60446;50.752;4.352;2023-05-27T05:40:01;12.32;;;3.45;;
72439;SDS011;60446;50.752;4.352;2023-05-27T05:42:31;14.27;;;3.97;;
72439;SDS011;60446;50.752;4.352;2023-05-27T05:44:59;13.67;;;3.40;;
72439;SDS011;60446;50.752;4.352;2023-05-27T05:47:26;13.48;;;2.55;;
72439;SDS011;60446;50.752;4.352;2023-05-27T05:50:03;15.68;;;3.55;;
72439;SDS011;60446;50.752;4.352;2023-05-27T05:52:34;18.67;;;3.28;;
72439;SDS011;60446;50.752;4.352;2023-05-27T05:55:01;12.38;;;3.35;;
72439;SDS011;60446;50.752;4.352;2023-05-27T05:57:29;18.53;;;3.40;;
72439;SDS011;60446;50.752;4.352;2023-05-27T06:00:03;11.50;;;3.50;;
72439;SDS011;60446;50.752;4.352;2023-05-27T06:02:43;12.90;;;2.72;;
72439;SDS011;60446;50.752;4.352;2023-05-27T06:05:20;12.63;;;3.15;;
72439;SDS011;60446;50.752;4.352;2023-05-27T06:07:48;16.33;;;3.30;;
72439;SDS011;60446;50.752;4.352;2023-05-27T06:10:15;9.10;;;2.50;;
72439;SDS011;60446;50.752;4.352;2023-05-27T06:12:43;14.80;;;3.38;;
72439;SDS011;60446;50.752;4.352;2023-05-27T06:15:10;11.38;;;3.40;;
72439;SDS011;60446;50.752;4.352;2023-05-27T06:17:41;14.25;;;3.03;;
72439;SDS011;60446;50.752;4.352;2023-05-27T06:20:10;13.00;;;3.35;;
72439;SDS011;60446;50.752;4.352;2023-05-27T06:22:37;13.33;;;2.80;;
72439;SDS011;60446;50.752;4.352;2023-05-27T06:25:24;13.85;;;3.00;;
72439;SDS011;60446;50.752;4.352;2023-05-27T06:27:55;12.68;;;3.33;;
72439;SDS011;60446;50.752;4.352;2023-05-27T06:30:22;15.57;;;3.72;;
72439;SDS011;60446;50.752;4.352;2023-05-27T06:32:51;12.10;;;3.58;;
72439;SDS011;60446;50.752;4.352;2023-05-27T06:35:19;17.87;;;3.33;;
72439;SDS011;60446;50.752;4.352;2023-05-27T06:37:47;14.18;;;3.13;;
72439;SDS011;60446;50.752;4.352;2023-05-27T06:40:15;15.63;;;3.67;;
72439;SDS011;60446;50.752;4.352;2023-05-27T06:42:42;12.27;;;3.35;;
72439;SDS011;60446;50.752;4.352;2023-05-27T06:45:31;11.10;;;2.95;;
72439;SDS011;60446;50.752;4.352;2023-05-27T06:48:15;14.60;;;3.37;;
72439;SDS011;60446;50.752;4.352;2023-05-27T06:50:43;12.93;;;3.50;;
72439;SDS011;60446;50.752;4.352;2023-05-27T06:53:10;18.55;;;3.92;;
72439;SDS011;60446;50.752;4.352;2023-05-27T06:55:52;17.73;;;4.22;;
72439;SDS011;60446;50.752;4.352;2023-05-27T06:58:46;17.73;;;3.70;;
72439;SDS011;60446;50.752;4.352;2023-05-27T07:01:16;14.57;;;3.60;;
72439;SDS011;60446;50.752;4.352;2023-05-27T07:03:47;20.88;;;3.85;;
72439;SDS011;60446;50.752;4.352;2023-05-27T07:06:20;12.05;;;4.07;;
72439;SDS011;60446;50.752;4.352;2023-05-27T07:08:49;15.52;;;3.83;;
72439;SDS011;60446;50.752;4.352;2023-05-27T07:11:31;16.15;;;3.80;;
72439;SDS011;60446;50.752;4.352;2023-05-27T07:14:03;16.00;;;4.33;;
72439;SDS011;60446;50.752;4.352;2023-05-27T07:16:32;14.98;;;3.65;;
72439;SDS011;60446;50.752;4.352;2023-05-27T07:19:00;12.55;;;3.78;;
72439;SDS011;60446;50.752;4.352;2023-05-27T07:21:31;19.17;;;3.05;;
72439;SDS011;60446;50.752;4.352;2023-05-27T07:24:00;12.63;;;3.28;;
72439;SDS011;60446;50.752;4.352;2023-05-27T07:26:32;19.43;;;3.83;;
72439;SDS011;60446;50.752;4.352;2023-05-27T07:29:00;15.95;;;3.67;;
72439;SDS011;60446;50.752;4.352;2023-05-27T07:31:46;15.02;;;3.60;;
72439;SDS011;60446;50.752;4.352;2023-05-27T07:34:15;13.70;;;3.35;;
72439;SDS011;60446;50.752;4.352;2023-05-27T07:36:43;11.40;;;3.42;;
72439;SDS011;60446;50.752;4.352;2023-05-27T07:39:10;15.63;;;3.50;;
72439;SDS011;60446;50.752;4.352;2023-05-27T07:41:37;13.60;;;3.72;;
72439;SDS011;60446;50.752;4.352;2023-05-27T07:44:05;16.85;;;3.53;;
72439;SDS011;60446;50.752;4.352;2023-05-27T07:46:32;13.60;;;3.10;;
72439;SDS011;60446;50.752;4.352;2023-05-27T07:49:00;14.00;;;3.60;;
72439;SDS011;60446;50.752;4.352;2023-05-27T07:51:29;14.87;;;3.17;;
72439;SDS011;60446;50.752;4.352;2023-05-27T07:53:59;12.73;;;3.70;;
72439;SDS011;60446;50.752;4.352;2023-05-27T07:56:26;12.48;;;3.33;;
72439;SDS011;60446;50.752;4.352;2023-05-27T07:58:54;12.95;;;3.50;;
72439;SDS011;60446;50.752;4.352;2023-05-27T08:01:22;14.93;;;3.17;;
72439;SDS011;60446;50.752;4.352;2023-05-27T08:03:53;15.20;;;3.43;;
72439;SDS011;60446;50.752;4.352;2023-05-27T08:06:46;12.55;;;3.10;;
72439;SDS011;60446;50.752;4.352;2023-05-27T08:09:28;14.30;;;3.13;;
72439;SDS011;60446;50.752;4.352;2023-05-27T08:11:59;13.48;;;3.13;;
72439;SDS011;60446;50.752;4.352;2023-05-27T08:14:39;10.63;;;3.22;;
72439;SDS011;60446;50.752;4.352;2023-05-27T08:17:29;9.70;;;2.87;;
72439;SDS011;60446;50.752;4.352;2023-05-27T08:19:56;12.20;;;3.05;;
72439;SDS011;60446;50.752;4.352;2023-05-27T08:22:41;13.48;;;3.83;;
72439;SDS011;60446;50.752;4.352;2023-05-27T08:25:27;9.70;;;3.08;;
72439;SDS011;60446;50.752;4.352;2023-05-27T08:28:07;10.52;;;2.80;;
72439;SDS011;60446;50.752;4.352;2023-05-27T08:30:48;14.73;;;3.43;;
72439;SDS011;60446;50.752;4.352;2023-05-27T08:33:25;14.77;;;3.50;;
72439;SDS011;60446;50.752;4.352;2023-05-27T08:35:53;13.40;;;2.80;;
72439;SDS011;60446;50.752;4.352;2023-05-27T08:38:22;11.38;;;2.70;;
72439;SDS011;60446;50.752;4.352;2023-05-27T08:40:53;11.05;;;2.50;;
72439;SDS011;60446;50.752;4.352;2023-05-27T08:43:21;12.97;;;3.47;;
72439;SDS011;60446;50.752;4.352;2023-05-27T08:45:49;14.77;;;3.10;;
72439;SDS011;60446;50.752;4.352;2023-05-27T08:48:17;14.07;;;3.88;;
72439;SDS011;60446;50.752;4.352;2023-05-27T08:50:46;12.07;;;3.25;;
72439;SDS011;60446;50.752;4.352;2023-05-27T08:53:13;9.73;;;3.00;;
72439;SDS011;60446;50.752;4.352;2023-05-27T08:55:42;16.47;;;3.53;;
72439;SDS011;60446;50.752;4.352;2023-05-27T08:58:11;11.45;;;3.10;;
72439;SDS011;60446;50.752;4.352;2023-05-27T09:00:45;16.90;;;3.50;;
72439;SDS011;60446;50.752;4.352;2023-05-27T09:03:16;14.57;;;3.08;;
72439;SDS011;60446;50.752;4.352;2023-05-27T09:05:44;12.07;;;3.10;;
72439;SDS011;60446;50.752;4.352;2023-05-27T09:08:12;13.27;;;3.30;;
72439;SDS011;60446;50.752;4.352;2023-05-27T09:10:39;11.88;;;3.00;;
72439;SDS011;60446;50.752;4.352;2023-05-27T09:13:08;11.90;;;3.78;;
72439;SDS011;60446;50.752;4.352;2023-05-27T09:15:35;13.85;;;3.30;;
72439;SDS011;60446;50.752;4.352;2023-05-27T09:18:04;14.15;;;3.47;;
72439;SDS011;60446;50.752;4.352;2023-05-27T09:20:31;12.67;;;2.93;;
72439;SDS011;60446;50.752;4.352;2023-05-27T09:22:59;13.68;;;3.47;;
72439;SDS011;60446;50.752;4.352;2023-05-27T09:25:28;12.35;;;3.30;;
72439;SDS011;60446;50.752;4.352;2023-05-27T09:27:57;13.60;;;3.08;;
72439;SDS011;60446;50.752;4.352;2023-05-27T09:30:24;12.57;;;2.95;;
72439;SDS011;60446;50.752;4.352;2023-05-27T09:33:00;13.03;;;2.97;;
72439;SDS011;60446;50.752;4.352;2023-05-27T09:35:36;15.85;;;3.50;;
72439;SDS011;60446;50.752;4.352;2023-05-27T09:38:06;15.40;;;4.05;;
72439;SDS011;60446;50.752;4.352;2023-05-27T09:40:35;15.30;;;3.58;;
72439;SDS011;60446;50.752;4.352;2023-05-27T09:43:04;13.68;;;2.80;;
72439;SDS011;60446;50.752;4.352;2023-05-27T09:45:31;13.37;;;3.20;;
72439;SDS011;60446;50.752;4.352;2023-05-27T09:48:00;10.60;;;2.88;;
72439;SDS011;60446;50.752;4.352;2023-05-27T09:50:29;13.95;;;3.30;;
72439;SDS011;60446;50.752;4.352;2023-05-27T09:52:58;14.02;;;2.88;;
72439;SDS011;60446;50.752;4.352;2023-05-27T09:55:38;11.93;;;3.15;;
72439;SDS011;60446;50.752;4.352;2023-05-27T09:58:08;11.43;;;3.03;;
72439;SDS011;60446;50.752;4.352;2023-05-27T10:00:38;11.40;;;3.50;;
72439;SDS011;60446;50.752;4.352;2023-05-27T10:03:09;9.63;;;2.42;;
72439;SDS011;60446;50.752;4.352;2023-05-27T10:05:37;17.75;;;3.63;;
72439;SDS011;60446;50.752;4.352;2023-05-27T10:08:05;14.13;;;3.30;;
72439;SDS011;60446;50.752;4.352;2023-05-27T10:10:49;9.20;;;2.53;;
72439;SDS011;60446;50.752;4.352;2023-05-27T10:13:18;10.30;;;2.30;;
72439;SDS011;60446;50.752;4.352;2023-05-27T10:15:47;14.30;;;3.05;;
72439;SDS011;60446;50.752;4.352;2023-05-27T10:18:22;14.07;;;3.80;;
72439;SDS011;60446;50.752;4.352;2023-05-27T10:20:51;11.30;;;2.80;;
72439;SDS011;60446;50.752;4.352;2023-05-27T10:25:53;14.90;;;3.40;;
72439;SDS011;60446;50.752;4.352;2023-05-27T10:31:06;13.35;;;2.97;;
72439;SDS011;60446;50.752;4.352;2023-05-27T10:33:35;11.98;;;2.75;;
72439;SDS011;60446;50.752;4.352;2023-05-27T10:36:12;11.80;;;2.90;;
72439;SDS011;60446;50.752;4.352;2023-05-27T10:38:40;11.50;;;2.50;;
72439;SDS011;60446;50.752;4.352;2023-05-27T10:41:09;11.25;;;3.10;;
72439;SDS011;60446;50.752;4.352;2023-05-27T10:43:36;12.95;;;3.05;;
72439;SDS011;60446;50.752;4.352;2023-05-27T10:46:06;13.80;;;3.03;;
72439;SDS011;60446;50.752;4.352;2023-05-27T10:48:39;11.33;;;2.80;;
72439;SDS011;60446;50.752;4.352;2023-05-27T10:51:07;11.30;;;2.75;;
72439;SDS011;60446;50.752;4.352;2023-05-27T10:53:35;11.45;;;2.60;;
72439;SDS011;60446;50.752;4.352;2023-05-27T10:56:03;12.25;;;2.35;;
72439;SDS011;60446;50.752;4.352;2023-05-27T10:58:34;13.10;;;2.70;;
72439;SDS011;60446;50.752;4.352;2023-05-27T11:01:10;12.70;;;3.00;;
72439;SDS011;60446;50.752;4.352;2023-05-27T11:03:44;13.35;;;2.67;;
72439;SDS011;60446;50.752;4.352;2023-05-27T11:06:13;9.55;;;2.50;;
72439;SDS011;60446;50.752;4.352;2023-05-27T11:08:42;9.10;;;2.45;;
72439;SDS011;60446;50.752;4.352;2023-05-27T11:11:09;9.68;;;2.05;;
72439;SDS011;60446;50.752;4.352;2023-05-27T11:13:39;14.20;;;2.83;;
72439;SDS011;60446;50.752;4.352;2023-05-27T11:16:14;7.68;;;2.92;;
72439;SDS011;60446;50.752;4.352;2023-05-27T11:21:15;8.13;;;3.08;;
72439;SDS011;60446;50.752;4.352;2023-05-27T11:23:44;10.50;;;3.13;;
72439;SDS011;60446;50.752;4.352;2023-05-27T11:26:14;11.13;;;2.57;;
72439;SDS011;60446;50.752;4.352;2023-05-27T11:28:49;9.65;;;2.80;;
72439;SDS011;60446;50.752;4.352;2023-05-27T11:31:26;9.00;;;3.10;;
72439;SDS011;60446;50.752;4.352;2023-05-27T11:33:55;10.68;;;2.40;;
72439;SDS011;60446;50.752;4.352;2023-05-27T11:36:25;8.82;;;2.15;;
72439;SDS011;60446;50.752;4.352;2023-05-27T11:39:00;8.37;;;2.73;;
72439;SDS011;60446;50.752;4.352;2023-05-27T11:41:28;11.23;;;2.70;;
72439;SDS011;60446;50.752;4.352;2023-05-27T11:44:00;11.45;;;2.97;;
72439;SDS011;60446;50.752;4.352;2023-05-27T11:49:08;10.30;;;2.63;;
72439;SDS011;60446;50.752;4.352;2023-05-27T11:51:37;12.07;;;2.90;;
72439;SDS011;60446;50.752;4.352;2023-05-27T11:54:22;10.82;;;2.85;;
72439;SDS011;60446;50.752;4.352;2023-05-27T11:56:55;7.55;;;2.13;;
72439;SDS011;60446;50.752;4.352;2023-05-27T11:59:23;9.32;;;3.42;;
72439;SDS011;60446;50.752;4.352;2023-05-27T12:01:51;8.30;;;2.30;;
72439;SDS011;60446;50.752;4.352;2023-05-27T12:04:22;11.43;;;2.70;;
72439;SDS011;60446;50.752;4.352;2023-05-27T12:06:49;8.55;;;2.10;;
72439;SDS011;60446;50.752;4.352;2023-05-27T12:09:17;9.30;;;2.60;;
72439;SDS011;60446;50.752;4.352;2023-05-27T12:11:45;8.05;;;2.40;;
72439;SDS011;60446;50.752;4.352;2023-05-27T12:14:12;8.30;;;2.45;;
72439;SDS011;60446;50.752;4.352;2023-05-27T12:16:39;11.93;;;2.70;;
72439;SDS011;60446;50.752;4.352;2023-05-27T12:19:06;9.75;;;2.33;;
72439;SDS011;60446;50.752;4.352;2023-05-27T12:21:36;10.85;;;2.70;;
72439;SDS011;60446;50.752;4.352;2023-05-27T12:24:05;11.48;;;2.78;;
72439;SDS011;60446;50.752;4.352;2023-05-27T12:26:33;10.23;;;2.58;;
72439;SDS011;60446;50.752;4.352;2023-05-27T12:29:00;10.17;;;2.90;;
72439;SDS011;60446;50.752;4.352;2023-05-27T12:31:27;11.32;;;2.75;;
72439;SDS011;60446;50.752;4.352;2023-05-27T12:33:54;11.50;;;2.95;;
72439;SDS011;60446;50.752;4.352;2023-05-27T12:36:21;9.93;;;2.97;;
72439;SDS011;60446;50.752;4.352;2023-05-27T12:38:48;10.35;;;2.42;;
72439;SDS011;60446;50.752;4.352;2023-05-27T12:41:16;7.07;;;2.10;;
72439;SDS011;60446;50.752;4.352;2023-05-27T12:43:43;9.60;;;2.55;;
72439;SDS011;60446;50.752;4.352;2023-05-27T12:46:10;7.97;;;2.42;;
72439;SDS011;60446;50.752;4.352;2023-05-27T12:48:37;10.68;;;2.72;;
72439;SDS011;60446;50.752;4.352;2023-05-27T12:51:04;9.65;;;2.42;;
72439;SDS011;60446;50.752;4.352;2023-05-27T12:53:32;9.47;;;2.90;;
72439;SDS011;60446;50.752;4.352;2023-05-27T12:55:59;12.23;;;3.08;;
72439;SDS011;60446;50.752;4.352;2023-05-27T12:58:27;15.40;;;3.25;;
72439;SDS011;60446;50.752;4.352;2023-05-27T13:00:54;10.88;;;2.97;;
72439;SDS011;60446;50.752;4.352;2023-05-27T13:03:22;9.50;;;2.78;;
72439;SDS011;60446;50.752;4.352;2023-05-27T13:05:49;9.43;;;2.77;;
72439;SDS011;60446;50.752;4.352;2023-05-27T13:08:16;7.15;;;2.53;;
72439;SDS011;60446;50.752;4.352;2023-05-27T13:10:43;9.52;;;2.75;;
72439;SDS011;60446;50.752;4.352;2023-05-27T13:13:11;9.57;;;2.83;;
72439;SDS011;60446;50.752;4.352;2023-05-27T13:15:38;8.13;;;2.60;;
72439;SDS011;60446;50.752;4.352;2023-05-27T13:18:05;9.40;;;2.57;;
72439;SDS011;60446;50.752;4.352;2023-05-27T13:20:33;9.48;;;2.50;;
72439;SDS011;60446;50.752;4.352;2023-05-27T13:23:00;9.27;;;2.55;;
72439;SDS011;60446;50.752;4.352;2023-05-27T13:25:28;11.15;;;3.03;;
72439;SDS011;60446;50.752;4.352;2023-05-27T13:27:56;10.32;;;2.97;;
72439;SDS011;60446;50.752;4.352;2023-05-27T13:30:23;9.27;;;2.47;;
72439;SDS011;60446;50.752;4.352;2023-05-27T13:32:51;10.57;;;2.63;;
72439;SDS011;60446;50.752;4.352;2023-05-27T13:35:20;10.68;;;2.35;;
72439;SDS011;60446;50.752;4.352;2023-05-27T13:37:47;10.65;;;2.53;;
72439;SDS011;60446;50.752;4.352;2023-05-27T13:40:14;9.68;;;2.42;;
72439;SDS011;60446;50.752;4.352;2023-05-27T13:42:41;9.00;;;2.30;;
72439;SDS011;60446;50.752;4.352;2023-05-27T13:45:09;9.32;;;2.65;;
72439;SDS011;60446;50.752;4.352;2023-05-27T13:47:36;9.18;;;2.72;;
72439;SDS011;60446;50.752;4.352;2023-05-27T13:50:07;12.63;;;2.80;;
72439;SDS011;60446;50.752;4.352;2023-05-27T13:52:35;10.90;;;3.47;;
72439;SDS011;60446;50.752;4.352;2023-05-27T13:55:03;10.27;;;3.10;;
72439;SDS011;60446;50.752;4.352;2023-05-27T13:57:30;10.82;;;2.85;;
72439;SDS011;60446;50.752;4.352;2023-05-27T13:59:58;9.05;;;2.70;;
72439;SDS011;60446;50.752;4.352;2023-05-27T14:02:25;7.75;;;2.95;;
72439;SDS011;60446;50.752;4.352;2023-05-27T14:04:52;8.25;;;2.88;;
72439;SDS011;60446;50.752;4.352;2023-05-27T14:07:19;9.67;;;3.23;;
72439;SDS011;60446;50.752;4.352;2023-05-27T14:09:47;11.05;;;2.67;;
72439;SDS011;60446;50.752;4.352;2023-05-27T14:12:14;9.02;;;2.45;;
72439;SDS011;60446;50.752;4.352;2023-05-27T14:14:41;8.27;;;2.53;;
72439;SDS011;60446;50.752;4.352;2023-05-27T14:17:08;7.80;;;2.83;;
72439;SDS011;60446;50.752;4.352;2023-05-27T14:19:35;9.13;;;2.47;;
72439;SDS011;60446;50.752;4.352;2023-05-27T14:22:03;6.93;;;2.53;;
72439;SDS011;60446;50.752;4.352;2023-05-27T14:24:30;10.05;;;2.75;;
72439;SDS011;60446;50.752;4.352;2023-05-27T14:26:57;8.07;;;2.50;;
72439;SDS011;60446;50.752;4.352;2023-05-27T14:29:25;11.05;;;2.90;;
72439;SDS011;60446;50.752;4.352;2023-05-27T14:31:52;8.70;;;2.70;;
72439;SDS011;60446;50.752;4.352;2023-05-27T14:34:19;7.70;;;2.60;;
72439;SDS011;60446;50.752;4.352;2023-05-27T14:36:47;8.20;;;2.67;;
72439;SDS011;60446;50.752;4.352;2023-05-27T14:39:14;9.00;;;3.00;;
72439;SDS011;60446;50.752;4.352;2023-05-27T14:41:41;8.18;;;3.03;;
72439;SDS011;60446;50.752;4.352;2023-05-27T14:44:09;8.30;;;2.50;;
72439;SDS011;60446;50.752;4.352;2023-05-27T14:46:37;8.45;;;2.72;;
72439;SDS011;60446;50.752;4.352;2023-05-27T14:49:04;10.10;;;2.50;;
72439;SDS011;60446;50.752;4.352;2023-05-27T14:51:32;10.45;;;3.33;;
72439;SDS011;60446;50.752;4.352;2023-05-27T14:53:59;9.52;;;2.53;;
72439;SDS011;60446;50.752;4.352;2023-05-27T14:56:26;11.10;;;3.27;;
72439;SDS011;60446;50.752;4.352;2023-05-27T14:58:53;9.25;;;3.13;;
72439;SDS011;60446;50.752;4.352;2023-05-27T15:01:20;9.73;;;2.90;;
72439;SDS011;60446;50.752;4.352;2023-05-27T15:03:48;7.50;;;3.40;;